createdAt,value
2022-11-04T00:03:58.204Z,99206.41
2022-11-04T00:09:01.282Z,99199.56
2022-11-04T00:14:06.019Z,99182.09
2022-11-04T00:19:08.596Z,99172.72
2022-11-04T00:24:44.689Z,99201.97
2022-11-04T00:29:49.071Z,99227.84
2022-11-04T00:34:51.657Z,99215.41
2022-11-04T00:39:54.253Z,99236.16
2022-11-04T00:44:58.243Z,99218.78
2022-11-04T00:50:00.843Z,99229.28
2022-11-04T00:55:03.625Z,99239.66
2022-11-04T01:00:09.189Z,99236.38
2022-11-04T01:05:11.777Z,99235.81
2022-11-04T01:10:14.416Z,99219.63
2022-11-04T01:15:18.699Z,99219.97
2022-11-04T01:20:21.402Z,99204.41
2022-11-04T01:25:24.208Z,99205.16
2022-11-04T01:30:28.119Z,99214.03
2022-11-04T01:35:30.763Z,99216.13
2022-11-04T01:40:37.498Z,99208.56
2022-11-04T01:45:42.935Z,99224.97
2022-11-04T01:50:45.787Z,99225.13
2022-11-04T01:55:52.526Z,99214.16
2022-11-04T02:00:56.548Z,99218.03
2022-11-04T02:06:00.677Z,99198.91
2022-11-04T02:11:05.063Z,99205.16
2022-11-04T02:16:17.790Z,99223.91
2022-11-04T02:22:01.996Z,99224.00
2022-11-04T02:27:37.350Z,99231.41
2022-11-04T02:33:06.738Z,99232.84
2022-11-04T02:38:18.332Z,99224.16
2022-11-04T02:43:26.542Z,99225.13
2022-11-04T02:48:38.877Z,99215.78
2022-11-04T02:53:46.604Z,99218.03
2022-11-04T02:58:55.778Z,99207.75
2022-11-04T03:04:05.285Z,99215.63
2022-11-04T03:09:11.676Z,99227.16
2022-11-04T03:14:16.657Z,99242.13
2022-11-04T03:19:27.919Z,99239.28
2022-11-04T03:24:32.398Z,99239.13
2022-11-04T03:29:37.363Z,99264.22
2022-11-04T03:34:41.129Z,99266.94
2022-11-04T03:39:43.835Z,99247.97
2022-11-04T03:44:47.952Z,99250.84
2022-11-04T03:49:55.709Z,99272.59
2022-11-04T03:54:58.536Z,99288.03
2022-11-04T04:00:10.351Z,99284.63
2022-11-04T04:05:21.265Z,99306.09
2022-11-04T04:10:41.874Z,99301.69
2022-11-04T04:15:50.663Z,99281.88
2022-11-04T04:20:57.533Z,99296.22
2022-11-04T04:26:23.587Z,99311.50
2022-11-04T04:31:45.548Z,99295.44
2022-11-04T04:36:54.302Z,99289.38
2022-11-04T04:42:14.961Z,99300.53
2022-11-04T04:47:21.887Z,99300.69
2022-11-04T04:52:28.703Z,99318.38
2022-11-04T04:57:31.493Z,99305.41
2022-11-04T05:02:34.229Z,99317.25
2022-11-04T05:07:38.376Z,99321.81
2022-11-04T05:12:59.181Z,99307.03
2022-11-04T05:18:03.261Z,99334.16
2022-11-04T05:23:07.775Z,99331.41
2022-11-04T05:28:10.906Z,99346.13
2022-11-04T05:33:13.676Z,99344.63
2022-11-04T05:38:17.646Z,99347.59
2022-11-04T05:43:20.510Z,99354.06
2022-11-04T05:48:24.188Z,99366.41
2022-11-04T05:58:35.994Z,99386.69
2022-11-04T06:03:38.691Z,99375.22
2022-11-04T06:08:45.283Z,99386.72
2022-11-04T06:13:48.161Z,99377.13
2022-11-04T06:18:50.807Z,99379.63
2022-11-04T06:23:56.836Z,99379.53
2022-11-04T06:28:59.488Z,99393.16
2022-11-04T06:34:02.156Z,99385.22
2022-11-04T06:39:06.546Z,99390.56
2022-11-04T06:44:09.245Z,99383.56
2022-11-04T06:49:14.576Z,99366.25
2022-11-04T06:54:19.396Z,99371.56
2022-11-04T06:59:22.062Z,99391.13
2022-11-04T07:04:24.743Z,99377.41
2022-11-04T07:09:28.670Z,99427.78
2022-11-04T07:14:31.437Z,99450.03
2022-11-04T07:19:34.123Z,99461.63
2022-11-04T07:24:40.663Z,99449.66
2022-11-04T07:29:43.284Z,99441.00
2022-11-04T07:34:45.848Z,99452.94
2022-11-04T07:39:49.735Z,99450.81
2022-11-04T07:44:52.311Z,99450.63
2022-11-04T07:50:11.324Z,99465.31
2022-11-04T07:55:25.014Z,99468.56
2022-11-04T08:00:29.627Z,99489.50
2022-11-04T08:05:32.253Z,99514.94
2022-11-04T08:10:39.532Z,99507.41
2022-11-04T08:15:44.287Z,99507.00
2022-11-04T08:20:50.024Z,99528.16
2022-11-04T08:25:54.136Z,99513.28
2022-11-04T08:31:01.248Z,99513.91
2022-11-04T08:36:09.524Z,99498.31
2022-11-04T08:41:15.549Z,99475.19
2022-11-04T08:46:18.542Z,99466.66
2022-11-04T08:51:23.822Z,99419.81
2022-11-04T08:56:30.376Z,99413.50
2022-11-04T09:01:36.807Z,99421.06
2022-11-04T09:06:41.876Z,99420.16
2022-11-04T09:12:06.296Z,99389.28
2022-11-04T09:17:19.574Z,99416.53
2022-11-04T09:22:22.338Z,99437.41
2022-11-04T09:27:28.391Z,99438.03
2022-11-04T09:32:33.280Z,99465.31
2022-11-04T09:37:40.700Z,99451.88
2022-11-04T09:43:55.420Z,99484.19
2022-11-04T09:49:03.622Z,99483.84
2022-11-04T09:54:29.536Z,99499.16
2022-11-04T10:05:37.919Z,99513.81
2022-11-04T10:11:03.680Z,99518.19
2022-11-04T10:16:38.793Z,99521.84
2022-11-04T10:22:01.618Z,99513.75
2022-11-04T10:27:14.174Z,99494.97
2022-11-04T10:37:56.124Z,99516.06
2022-11-04T10:43:00.589Z,99524.53
2022-11-04T10:48:07.020Z,99534.47
2022-11-04T10:53:48.767Z,99534.97
2022-11-04T10:58:58.621Z,99497.91
2022-11-04T11:04:29.446Z,99517.94
2022-11-04T11:09:35.019Z,99515.00
2022-11-04T11:14:40.063Z,99525.03
2022-11-04T11:19:51.678Z,99522.16
2022-11-04T11:24:54.395Z,99521.78
2022-11-04T11:29:57.247Z,99528.34
2022-11-04T11:35:04.316Z,99544.59
2022-11-04T11:40:25.834Z,99549.88
2022-11-04T11:45:29.157Z,99544.16
2022-11-04T11:50:35.008Z,99536.09
2022-11-04T11:55:39.205Z,99548.59
2022-11-04T12:00:51.970Z,99553.97
2022-11-04T12:11:29.277Z,99541.06
2022-11-04T12:16:39.174Z,99548.16
2022-11-04T12:21:48.169Z,99540.66
2022-11-04T12:26:59.940Z,99537.09
2022-11-04T12:32:10.289Z,99540.50
2022-11-04T12:37:26.727Z,99543.84
2022-11-04T12:42:44.807Z,99538.28
2022-11-04T12:47:48.620Z,99535.78
2022-11-04T12:53:14.312Z,99529.44
2022-11-04T12:58:29.823Z,99534.78
2022-11-04T13:03:37.543Z,99532.13
2022-11-04T13:08:47.756Z,99529.94
2022-11-04T13:14:02.200Z,99518.38
2022-11-04T13:19:07.162Z,99549.94
2022-11-04T13:24:22.199Z,99551.41
2022-11-04T13:29:26.560Z,99559.09
2022-11-04T13:34:49.403Z,99571.25
2022-11-04T13:39:58.815Z,99566.38
2022-11-04T13:45:12.128Z,99557.84
2022-11-04T13:50:29.763Z,99565.75
2022-11-04T13:55:35.529Z,99572.06
2022-11-04T14:00:39.860Z,99580.44
2022-11-04T14:06:12.557Z,99595.56
2022-11-04T14:11:16.513Z,99595.25
2022-11-04T14:16:40.150Z,99598.78
2022-11-04T14:22:07.738Z,99607.97
2022-11-04T14:27:25.587Z,99604.09
2022-11-04T14:32:32.903Z,99607.84
2022-11-04T14:37:37.666Z,99610.72
2022-11-04T14:42:49.935Z,99596.72
2022-11-04T14:48:15.551Z,99594.75
2022-11-04T14:53:24.635Z,99596.88
2022-11-04T14:58:33.875Z,99616.31
2022-11-04T15:04:10.966Z,99619.09
2022-11-04T15:09:01.663Z,99615.59
2022-11-04T15:14:15.773Z,99626.06
2022-11-04T15:19:28.214Z,99611.47
2022-11-04T15:24:39.046Z,99619.31
2022-11-04T15:30:24.720Z,99652.03
2022-11-04T15:35:31.713Z,99646.09
2022-11-04T15:41:00.592Z,99641.38
2022-11-04T15:46:10.266Z,99641.03
2022-11-04T15:51:17.220Z,99655.25
2022-11-04T15:56:26.026Z,99655.25
2022-11-04T16:01:32.804Z,99671.03
2022-11-04T16:06:38.279Z,99657.13
2022-11-04T16:11:41.336Z,99677.63
2022-11-04T16:16:50.755Z,99665.91
2022-11-04T16:22:01.909Z,99679.63
2022-11-04T16:27:09.124Z,99696.78
2022-11-04T16:32:19.727Z,99705.47
2022-11-04T16:37:22.431Z,99694.41
2022-11-04T16:42:25.316Z,99713.22
2022-11-04T16:47:30.790Z,99712.00
2022-11-04T16:52:33.462Z,99723.47
2022-11-04T16:57:36.379Z,99720.78
2022-11-04T17:02:41.640Z,99721.91
2022-11-04T17:07:53.647Z,99699.59
2022-11-04T17:12:58.157Z,99700.41
2022-11-04T17:18:02.319Z,99725.41
2022-11-04T17:23:05.074Z,99700.69
2022-11-04T17:28:07.811Z,99712.84
2022-11-04T17:33:14.650Z,99722.03
2022-11-04T17:38:18.719Z,99722.53
2022-11-04T17:43:38.881Z,99728.22
2022-11-04T17:48:45.425Z,99727.81
2022-11-04T17:53:49.400Z,99740.25
2022-11-04T17:58:53.320Z,99738.22
2022-11-04T18:03:58.074Z,99749.25
2022-11-04T18:09:00.918Z,99756.19
2022-11-04T18:14:03.625Z,99749.84
2022-11-04T18:19:07.744Z,99762.00
2022-11-04T18:24:10.753Z,99757.38
2022-11-04T18:29:13.698Z,99772.75
2022-11-04T18:34:19.930Z,99764.84
2022-11-04T18:39:22.899Z,99766.72
2022-11-04T18:44:25.496Z,99769.28
2022-11-04T18:49:29.932Z,99772.06
2022-11-04T18:54:32.771Z,99770.25
2022-11-04T18:59:35.438Z,99766.31
2022-11-04T19:04:39.474Z,99782.03
2022-11-04T19:09:47.185Z,99785.63
2022-11-04T19:14:50.702Z,99791.69
2022-11-04T19:19:54.869Z,99793.50
2022-11-04T19:24:57.523Z,99807.28
2022-11-04T19:30:00.175Z,99812.50
2022-11-04T19:35:04.299Z,99827.94
2022-11-04T19:40:08.099Z,99831.34
2022-11-04T19:45:10.861Z,99820.03
2022-11-04T19:50:15.053Z,99852.00
2022-11-04T19:55:17.801Z,99853.38
2022-11-04T20:00:20.872Z,99851.41
2022-11-04T20:05:25.183Z,99862.56
2022-11-04T20:10:27.958Z,99892.31
2022-11-04T20:15:30.957Z,99880.34
2022-11-04T20:20:35.195Z,99879.28
2022-11-04T20:25:38.202Z,99892.41
2022-11-04T20:30:44.010Z,99891.69
2022-11-04T20:35:48.406Z,99920.81
2022-11-04T20:40:51.267Z,99918.50
2022-11-04T20:45:54.063Z,99925.22
2022-11-04T20:50:58.189Z,99939.75
2022-11-04T20:56:00.885Z,99940.28
2022-11-04T21:01:05.434Z,99942.34
2022-11-04T21:06:11.638Z,99932.84
2022-11-04T21:11:31.746Z,99940.72
2022-11-04T21:16:35.887Z,99966.50
2022-11-04T21:21:41.907Z,99959.69
2022-11-04T21:26:45.601Z,99962.22
2022-11-04T21:31:49.732Z,99948.34
2022-11-04T21:36:54.011Z,99966.22
2022-11-04T21:42:02.431Z,99976.81
2022-11-04T21:47:05.268Z,99965.34
2022-11-04T21:52:13.663Z,99949.28
2022-11-04T21:57:17.728Z,99970.53
2022-11-04T22:02:20.664Z,99980.59
2022-11-04T22:07:54.438Z,99970.22
2022-11-04T22:12:57.440Z,99982.84
2022-11-04T22:18:00.441Z,99973.41
2022-11-04T22:23:05.093Z,99972.47
2022-11-04T22:28:07.954Z,99974.56
2022-11-04T22:33:11.014Z,99990.63
2022-11-04T22:38:15.798Z,99997.56
2022-11-04T22:43:18.586Z,99997.53
2022-11-04T22:48:21.746Z,99995.59
2022-11-04T22:53:26.243Z,100011.22
2022-11-04T22:58:28.797Z,100018.66
2022-11-04T23:03:31.901Z,100004.09
2022-11-04T23:08:37.472Z,100007.41
2022-11-04T23:14:06.625Z,100024.06
2022-11-04T23:19:09.309Z,100030.91
2022-11-04T23:24:30.897Z,100038.16
2022-11-04T23:29:51.151Z,100043.06
2022-11-04T23:35:11.397Z,100043.97
2022-11-04T23:40:15.462Z,100049.38
2022-11-04T23:45:36.170Z,100050.28
2022-11-04T23:50:56.215Z,100049.72
2022-11-04T23:56:18.611Z,100062.28
